KABY

Southwest Georgia Regional Airport

Albany, Georgia, USA
METAR KABY 200653Z AUTO 10004KT 10SM CLR 18/16 A3032 RMK AO2 SLP265 T01780156
Observed Flight Rules
Feb-20 @ 06:53 UTC (39 minutes ago) Visual Flight Rules
Wind Visibility Clouds
100° at 4 knots 10 miles
  • Clear skies
Temperatures Readings
Current 18°C / 64°F
Dewpoint 16°C / 61°F
Humidity 88%
Altimeter 30.32" Hg
Pressure 1026.5 hPa
Elevation 58
METAR KABY 200653Z AUTO 10004KT 10SM CLR 18/16 A3032 RMK AO2 SLP265 T01780156
Observed Flight Rules
Feb-20 @ 06:53 UTC
(39 minutes ago)
VFR
Wind Visibility
100° at 4 knots 10 miles
Clouds
  • Clear skies
Temperature Dewpoint
18°C / 64°F 16°C / 61°F
Humidity Altimeter Pressure
88% 30.32" Hg 1026.5 hPa